Time;durP1;ratioP1;P1;durP2;ratioP2;P2;SDS_P1;SDS_P2;PMS_P1;PMS_P2;Temp;Humidity;BMP_temperature;BMP_pressure;BME280_temperature;BME280_humidity;BME280_pressure;Samples;Min_cycle;Max_cycle;Signal;HPM_P1;HPM_P2
2024/03/18 00:00:55;;;;;;;;;;;7.50;99.90;;;;;;5055249;28;20234;-75
2024/03/18 00:03:21;;;;;;;;;;;7.50;99.90;;;;;;5036980;28;19916;-75
2024/03/18 00:05:46;;;;;;;;;;;7.50;99.90;;;;;;5065321;28;19959;-75
2024/03/18 00:08:14;;;;;;;;;;;7.50;99.90;;;;;;5054401;28;19917;-75
2024/03/18 00:10:39;;;;;;;;;;;7.40;99.90;;;;;;5057523;28;20329;-75
2024/03/18 00:13:05;;;;;;;;;;;7.50;99.90;;;;;;5064754;28;19975;-75
2024/03/18 00:15:30;;;;;;;;;;;7.50;99.90;;;;;;5054433;28;19966;-75
2024/03/18 00:17:56;;;;;;;;;;;7.50;99.90;;;;;;5056791;28;19920;-75
2024/03/18 00:20:22;;;;;;;;;;;7.40;99.90;;;;;;5063806;28;20317;-75
2024/03/18 00:22:47;;;;;;;;;;;7.40;99.90;;;;;;5052532;28;19931;-75
2024/03/18 00:25:13;;;;;;;;;;;7.40;99.90;;;;;;5081380;28;19927;-75
2024/03/18 00:27:39;;;;;;;;;;;7.40;99.90;;;;;;5020730;28;20588;-75
2024/03/18 00:30:14;;;;;;;;;;;7.40;99.90;;;;;;5021820;28;20667;-75
2024/03/18 00:32:40;;;;;;;;;;;7.40;99.90;;;;;;5085967;28;20346;-75
2024/03/18 00:35:06;;;;;;;;;;;7.30;99.90;;;;;;5073749;28;19917;-75
2024/03/18 00:37:32;;;;;;;;;;;7.30;99.90;;;;;;5067798;28;19917;-75
2024/03/18 00:39:58;;;;;;;;;;;7.30;99.90;;;;;;5059899;28;19917;-75
2024/03/18 00:42:24;;;;;;;;;;;7.30;99.90;;;;;;5052617;28;19947;-75
2024/03/18 00:44:49;;;;;;;;;;;7.30;99.90;;;;;;5049130;28;20326;-75
2024/03/18 00:47:15;;;;;;;;;;;7.20;99.90;;;;;;5052205;28;19927;-75
2024/03/18 00:49:40;;;;;;;;;;;7.20;99.90;;;;;;5054875;28;19928;-76
2024/03/18 00:52:06;;;;;;;;;;;7.20;99.90;;;;;;5066270;28;19913;-75
2024/03/18 00:54:32;;;;;;;;;;;7.20;99.90;;;;;;5035920;28;19912;-75
2024/03/18 00:56:57;;;;;;;;;;;7.20;99.90;;;;;;5052189;28;19924;-76
2024/03/18 00:59:24;;;;;;;;;;;7.10;99.90;;;;;;5053206;28;19984;-75
2024/03/18 01:01:50;;;;;;;;;;;7.10;99.90;;;;;;5051011;28;19917;-75
2024/03/18 01:04:18;;;;;;;;;;;7.10;99.90;;;;;;5015641;28;20178;-75
2024/03/18 01:06:44;;;;;;;;;;;7.10;99.90;;;;;;5048947;28;19917;-75
2024/03/18 01:09:10;;;;;;;;;;;7.10;99.90;;;;;;5011323;28;20428;-74
2024/03/18 01:11:36;;;;;;;;;;;7.10;99.90;;;;;;5046827;28;19944;-75
2024/03/18 01:14:02;;;;;;;;;;;7.10;99.90;;;;;;5046279;28;20670;-75
2024/03/18 01:16:27;;;;;;;;;;;7.00;99.90;;;;;;5031811;28;20004;-74
2024/03/18 01:18:56;;;;;;;;;;;7.00;99.90;;;;;;5084322;28;19917;-75
2024/03/18 01:21:21;;;;;;;;;;;7.00;99.90;;;;;;5019343;28;19982;-75
2024/03/18 01:23:47;;;;;;;;;;;7.00;99.90;;;;;;5045617;28;19921;-75
2024/03/18 01:26:13;;;;;;;;;;;7.00;99.90;;;;;;5040160;28;20016;-74
2024/03/18 01:28:39;;;;;;;;;;;7.00;99.90;;;;;;5032715;28;19917;-75
2024/03/18 01:31:05;;;;;;;;;;;7.00;99.90;;;;;;5031851;28;19913;-75
2024/03/18 01:33:31;;;;;;;;;;;6.90;99.90;;;;;;5033292;28;19921;-75
2024/03/18 01:35:57;;;;;;;;;;;6.90;99.90;;;;;;5031678;28;19925;-76
2024/03/18 01:38:22;;;;;;;;;;;6.80;99.90;;;;;;5029995;28;19971;-75
2024/03/18 01:40:48;;;;;;;;;;;6.80;99.90;;;;;;5028420;28;19917;-75
2024/03/18 01:43:14;;;;;;;;;;;6.80;99.90;;;;;;5033822;28;19917;-75
2024/03/18 01:45:40;;;;;;;;;;;6.80;99.90;;;;;;5018103;28;19921;-75
2024/03/18 01:48:08;;;;;;;;;;;6.80;99.90;;;;;;5036108;28;19924;-75
2024/03/18 01:50:34;;;;;;;;;;;6.80;99.90;;;;;;5032743;28;19924;-76
2024/03/18 01:53:00;;;;;;;;;;;6.80;99.90;;;;;;5046971;28;20259;-75
2024/03/18 01:55:25;;;;;;;;;;;6.80;99.90;;;;;;5046510;28;19917;-76
2024/03/18 01:57:52;;;;;;;;;;;6.80;99.90;;;;;;5040625;28;20286;-76
2024/03/18 02:00:25;;;;;;;;;;;6.80;99.90;;;;;;5047613;28;19928;-75
2024/03/18 02:02:52;;;;;;;;;;;6.70;99.90;;;;;;5037148;28;19921;-76
2024/03/18 02:05:18;;;;;;;;;;;6.70;99.90;;;;;;5061375;28;19927;-76
2024/03/18 02:07:43;;;;;;;;;;;6.70;99.90;;;;;;5043160;28;19921;-75
2024/03/18 02:10:09;;;;;;;;;;;6.60;99.90;;;;;;5020871;28;19913;-75
2024/03/18 02:12:36;;;;;;;;;;;6.60;99.90;;;;;;5044320;28;19912;-75
2024/03/18 02:15:02;;;;;;;;;;;6.60;99.90;;;;;;5066159;28;19917;-75
2024/03/18 02:17:27;;;;;;;;;;;6.60;99.90;;;;;;5017783;28;19928;-75
2024/03/18 02:19:53;;;;;;;;;;;6.60;99.90;;;;;;5035319;28;19921;-76
2024/03/18 02:22:19;;;;;;;;;;;6.50;99.90;;;;;;5073558;28;19928;-75
2024/03/18 02:24:44;;;;;;;;;;;6.50;99.90;;;;;;5010312;28;20004;-75
2024/03/18 02:27:10;;;;;;;;;;;6.50;99.90;;;;;;5046990;28;19937;-75
2024/03/18 02:29:36;;;;;;;;;;;6.50;99.90;;;;;;5037513;28;20238;-75
2024/03/18 02:32:02;;;;;;;;;;;6.50;99.90;;;;;;5048774;28;19913;-75
2024/03/18 02:34:27;;;;;;;;;;;6.40;99.90;;;;;;5031354;28;19917;-75
2024/03/18 02:36:53;;;;;;;;;;;6.40;99.90;;;;;;5043559;28;20127;-75
2024/03/18 02:39:22;;;;;;;;;;;6.30;99.90;;;;;;5017917;28;20258;-75
2024/03/18 02:41:52;;;;;;;;;;;6.30;99.90;;;;;;5044693;28;20014;-75
2024/03/18 02:44:17;;;;;;;;;;;6.30;99.90;;;;;;5042788;28;19971;-75
2024/03/18 02:46:43;;;;;;;;;;;6.30;99.90;;;;;;5066187;28;19990;-75
2024/03/18 02:49:12;;;;;;;;;;;6.20;99.90;;;;;;5025999;28;19964;-75
2024/03/18 02:51:38;;;;;;;;;;;6.20;99.90;;;;;;5054858;28;19921;-75
2024/03/18 02:54:04;;;;;;;;;;;6.20;99.90;;;;;;5017380;28;19924;-75
2024/03/18 02:56:30;;;;;;;;;;;6.20;99.90;;;;;;5028408;28;19917;-75
2024/03/18 02:58:55;;;;;;;;;;;6.10;99.90;;;;;;5062313;28;19960;-75
2024/03/18 03:01:25;;;;;;;;;;;6.10;99.90;;;;;;5061794;28;19925;-75
2024/03/18 03:03:57;;;;;;;;;;;6.10;99.90;;;;;;5051770;28;19932;-75
2024/03/18 03:06:23;;;;;;;;;;;6.00;99.90;;;;;;5056074;28;19913;-76
2024/03/18 03:08:49;;;;;;;;;;;6.00;99.90;;;;;;5049848;28;19917;-75
2024/03/18 03:11:15;;;;;;;;;;;6.00;99.90;;;;;;5039055;28;19975;-75
2024/03/18 03:13:40;;;;;;;;;;;5.90;99.90;;;;;;5041627;28;19932;-76
2024/03/18 03:16:09;;;;;;;;;;;5.90;99.90;;;;;;5002939;28;20398;-75
2024/03/18 03:18:35;;;;;;;;;;;6.00;99.90;;;;;;5072194;28;20296;-75
2024/03/18 03:21:01;;;;;;;;;;;6.00;99.90;;;;;;5050085;28;20044;-75
2024/03/18 03:23:26;;;;;;;;;;;6.00;99.90;;;;;;5018024;28;19917;-75
2024/03/18 03:25:52;;;;;;;;;;;5.90;99.90;;;;;;5035162;28;19989;-75
2024/03/18 03:28:18;;;;;;;;;;;5.90;99.90;;;;;;5052786;28;19917;-75
2024/03/18 03:30:46;;;;;;;;;;;5.90;99.90;;;;;;5019269;28;19952;-75
2024/03/18 03:33:12;;;;;;;;;;;5.90;99.90;;;;;;5039560;28;19917;-75
2024/03/18 03:35:38;;;;;;;;;;;5.80;99.90;;;;;;5047442;28;19978;-75
2024/03/18 03:38:04;;;;;;;;;;;5.80;99.90;;;;;;5059017;28;20621;-75
2024/03/18 03:40:29;;;;;;;;;;;5.80;99.90;;;;;;5070167;28;19952;-75
2024/03/18 03:42:55;;;;;;;;;;;5.80;99.90;;;;;;5051060;28;20008;-75
2024/03/18 03:45:25;;;;;;;;;;;5.80;99.90;;;;;;5049642;28;19917;-75
2024/03/18 03:47:50;;;;;;;;;;;5.90;99.90;;;;;;5033892;28;19921;-75
2024/03/18 03:50:16;;;;;;;;;;;5.90;99.90;;;;;;5063420;28;19971;-75
2024/03/18 03:52:42;;;;;;;;;;;5.80;99.90;;;;;;5001108;28;19917;-75
2024/03/18 03:55:09;;;;;;;;;;;5.80;99.90;;;;;;5070024;28;19998;-75
2024/03/18 03:57:35;;;;;;;;;;;5.80;99.90;;;;;;5017653;28;19979;-75
2024/03/18 04:00:00;;;;;;;;;;;5.80;99.90;;;;;;5017435;28;19929;-76
2024/03/18 04:02:26;;;;;;;;;;;5.70;99.90;;;;;;5017606;28;19928;-75
2024/03/18 04:04:52;;;;;;;;;;;5.80;99.90;;;;;;5028845;28;19971;-76
2024/03/18 04:07:23;;;;;;;;;;;5.80;99.90;;;;;;5030132;28;19925;-75
2024/03/18 04:09:50;;;;;;;;;;;5.80;99.90;;;;;;5033710;28;19952;-75
2024/03/18 04:12:16;;;;;;;;;;;5.80;99.90;;;;;;5017570;28;20001;-76
2024/03/18 04:14:41;;;;;;;;;;;5.90;99.90;;;;;;5033088;28;20011;-75
2024/03/18 04:17:10;;;;;;;;;;;5.90;99.90;;;;;;5040459;28;20693;-76
2024/03/18 04:19:36;;;;;;;;;;;5.80;99.90;;;;;;5049653;28;19917;-75
2024/03/18 04:22:02;;;;;;;;;;;5.80;99.90;;;;;;5010985;28;19975;-76
2024/03/18 04:24:28;;;;;;;;;;;5.80;99.90;;;;;;5058111;28;19921;-76
2024/03/18 04:26:54;;;;;;;;;;;5.80;99.90;;;;;;5007001;28;20416;-75
2024/03/18 04:29:20;;;;;;;;;;;5.70;99.90;;;;;;5018375;28;19912;-75
2024/03/18 04:31:45;;;;;;;;;;;5.70;99.90;;;;;;5073473;28;19928;-76
2024/03/18 04:34:11;;;;;;;;;;;5.70;99.90;;;;;;5067186;28;19981;-76
2024/03/18 04:36:37;;;;;;;;;;;5.70;99.90;;;;;;5040597;28;19919;-75
2024/03/18 04:39:03;;;;;;;;;;;5.60;99.90;;;;;;5033083;28;19964;-77
2024/03/18 04:41:29;;;;;;;;;;;5.60;99.90;;;;;;5000378;28;19957;-77
2024/03/18 04:43:54;;;;;;;;;;;5.60;99.90;;;;;;5042557;28;19921;-76
2024/03/18 04:46:20;;;;;;;;;;;5.60;99.90;;;;;;5024780;28;20245;-77
2024/03/18 04:48:46;;;;;;;;;;;5.50;99.90;;;;;;5078070;28;20007;-77
2024/03/18 04:51:12;;;;;;;;;;;5.50;99.90;;;;;;5001262;28;20008;-76
2024/03/18 04:53:37;;;;;;;;;;;5.50;99.90;;;;;;5033819;28;19917;-77
2024/03/18 04:56:03;;;;;;;;;;;5.50;99.90;;;;;;5034553;28;19917;-76
2024/03/18 04:58:29;;;;;;;;;;;5.50;99.90;;;;;;4997952;28;19913;-77
2024/03/18 05:00:54;;;;;;;;;;;5.40;99.90;;;;;;5000495;28;19929;-76
2024/03/18 05:03:21;;;;;;;;;;;5.50;99.90;;;;;;5035718;28;20012;-76
2024/03/18 05:05:46;;;;;;;;;;;5.40;99.90;;;;;;5033703;28;20036;-76
2024/03/18 05:08:12;;;;;;;;;;;5.40;99.90;;;;;;5042549;28;20308;-76
2024/03/18 05:10:40;;;;;;;;;;;5.40;99.90;;;;;;5082040;28;20012;-77
2024/03/18 05:13:05;;;;;;;;;;;5.40;99.90;;;;;;5033895;28;19917;-76
2024/03/18 05:15:31;;;;;;;;;;;5.40;99.90;;;;;;5017358;28;20077;-76
2024/03/18 05:17:57;;;;;;;;;;;5.40;99.90;;;;;;5033804;28;19919;-77
2024/03/18 05:20:23;;;;;;;;;;;5.40;99.90;;;;;;5017848;28;19971;-76
2024/03/18 05:22:49;;;;;;;;;;;5.30;99.90;;;;;;5033697;28;20237;-76
2024/03/18 05:25:15;;;;;;;;;;;5.30;99.90;;;;;;5028015;28;20612;-74
2024/03/18 05:27:41;;;;;;;;;;;5.30;99.90;;;;;;5015458;28;19921;-74
2024/03/18 05:30:07;;;;;;;;;;;5.30;99.90;;;;;;5028945;28;19923;-76
2024/03/18 05:32:32;;;;;;;;;;;5.20;99.90;;;;;;5021161;28;19925;-77
2024/03/18 05:34:58;;;;;;;;;;;5.20;99.90;;;;;;5008092;28;19920;-77
2024/03/18 05:37:25;;;;;;;;;;;5.30;99.90;;;;;;5038334;28;19944;-77
2024/03/18 05:39:51;;;;;;;;;;;5.20;99.90;;;;;;5054598;28;19987;-77
2024/03/18 05:42:16;;;;;;;;;;;5.30;99.90;;;;;;5024683;28;20346;-77
2024/03/18 05:44:42;;;;;;;;;;;5.30;99.90;;;;;;5045485;28;20237;-76
2024/03/18 05:47:08;;;;;;;;;;;5.30;99.90;;;;;;5037506;28;20333;-76
2024/03/18 05:49:34;;;;;;;;;;;5.30;99.90;;;;;;5037459;28;19917;-76
2024/03/18 05:52:00;;;;;;;;;;;5.30;99.90;;;;;;5043381;28;19917;-76
2024/03/18 05:54:26;;;;;;;;;;;5.30;99.90;;;;;;5022529;28;19996;-76
2024/03/18 05:56:53;;;;;;;;;;;5.40;99.90;;;;;;5035096;28;19921;-76
2024/03/18 05:59:19;;;;;;;;;;;5.40;99.90;;;;;;5071187;28;19927;-76
2024/03/18 06:01:44;;;;;;;;;;;5.40;99.90;;;;;;5036014;28;19933;-76
2024/03/18 06:04:11;;;;;;;;;;;5.40;99.90;;;;;;5052286;28;19921;-76
2024/03/18 06:06:41;;;;;;;;;;;5.40;99.90;;;;;;5079545;28;20242;-77
2024/03/18 06:09:07;;;;;;;;;;;5.40;99.90;;;;;;5036192;28;19924;-76
2024/03/18 06:11:36;;;;;;;;;;;5.40;99.90;;;;;;5036406;28;19916;-76
2024/03/18 06:14:03;;;;;;;;;;;5.40;99.90;;;;;;5031303;28;20016;-76
2024/03/18 06:16:28;;;;;;;;;;;5.40;99.90;;;;;;5032805;28;20000;-76
2024/03/18 06:18:54;;;;;;;;;;;5.40;99.90;;;;;;5039723;28;20339;-76
2024/03/18 06:21:20;;;;;;;;;;;5.50;99.90;;;;;;5036166;28;19917;-76
2024/03/18 06:23:54;;;;;;;;;;;5.50;99.90;;;;;;5020376;28;19917;-77
2024/03/18 06:26:21;;;;;;;;;;;5.40;99.90;;;;;;5036386;28;20607;-76
2024/03/18 06:28:46;;;;;;;;;;;5.50;99.90;;;;;;5044417;28;19943;-76
2024/03/18 06:31:12;;;;;;;;;;;5.40;99.90;;;;;;5031948;28;19928;-76
2024/03/18 06:33:38;;;;;;;;;;;5.50;99.90;;;;;;5036562;28;19913;-76
2024/03/18 06:36:09;;;;;;;;;;;5.50;99.90;;;;;;5067569;28;19913;-76
2024/03/18 06:38:35;;;;;;;;;;;5.50;99.90;;;;;;5048395;28;19940;-76
2024/03/18 06:41:00;;;;;;;;;;;5.50;99.90;;;;;;5020566;28;19929;-76
2024/03/18 06:43:26;;;;;;;;;;;5.60;99.90;;;;;;5057365;28;19918;-76
2024/03/18 06:45:51;;;;;;;;;;;5.60;99.90;;;;;;5033879;28;19913;-75
2024/03/18 06:48:17;;;;;;;;;;;5.60;99.90;;;;;;5062393;28;19913;-76
2024/03/18 06:50:43;;;;;;;;;;;5.70;99.90;;;;;;5002917;28;19913;-75
2024/03/18 06:53:08;;;;;;;;;;;5.70;99.90;;;;;;5044489;28;19960;-76
2024/03/18 06:55:40;;;;;;;;;;;5.70;99.90;;;;;;5047292;28;20425;-76
2024/03/18 06:58:05;;;;;;;;;;;5.70;99.90;;;;;;5035432;28;19943;-76
2024/03/18 07:00:31;;;;;;;;;;;5.80;99.90;;;;;;5002042;28;19955;-76
2024/03/18 07:02:57;;;;;;;;;;;5.80;99.90;;;;;;5034719;28;19921;-75
2024/03/18 07:05:24;;;;;;;;;;;5.90;99.90;;;;;;5066585;28;19917;-76
2024/03/18 07:07:49;;;;;;;;;;;5.90;99.90;;;;;;5023017;28;19921;-75
2024/03/18 07:10:15;;;;;;;;;;;6.00;99.90;;;;;;5018684;28;19998;-76
2024/03/18 07:12:42;;;;;;;;;;;6.00;99.90;;;;;;5081004;28;19917;-76
2024/03/18 07:15:09;;;;;;;;;;;6.00;99.90;;;;;;5054529;28;19913;-76
2024/03/18 07:17:35;;;;;;;;;;;6.10;99.90;;;;;;5040341;28;19917;-76
2024/03/18 07:20:01;;;;;;;;;;;6.20;99.90;;;;;;5062600;28;19928;-76
2024/03/18 07:22:27;;;;;;;;;;;6.30;99.90;;;;;;5043401;28;19967;-76
2024/03/18 07:24:53;;;;;;;;;;;6.40;99.90;;;;;;5039044;28;20315;-76
2024/03/18 07:27:18;;;;;;;;;;;6.50;99.90;;;;;;5025992;28;19917;-75
2024/03/18 07:29:44;;;;;;;;;;;6.50;99.90;;;;;;5068521;28;19955;-75
2024/03/18 07:32:11;;;;;;;;;;;6.50;99.90;;;;;;5018053;28;19956;-76
2024/03/18 07:34:37;;;;;;;;;;;6.60;99.90;;;;;;5059044;28;19921;-76
2024/03/18 07:37:03;;;;;;;;;;;6.70;99.90;;;;;;5051768;28;19917;-76
2024/03/18 07:39:28;;;;;;;;;;;6.80;99.90;;;;;;5051435;28;19924;-76
2024/03/18 07:41:57;;;;;;;;;;;6.80;99.90;;;;;;5030524;28;19977;-76
2024/03/18 07:44:23;;;;;;;;;;;6.90;99.90;;;;;;5022265;28;20015;-76
2024/03/18 07:46:49;;;;;;;;;;;6.90;99.90;;;;;;5020091;28;19995;-76
2024/03/18 07:49:15;;;;;;;;;;;7.00;99.90;;;;;;5023954;28;19971;-76
2024/03/18 07:51:40;;;;;;;;;;;7.00;99.90;;;;;;5008839;28;19970;-75
2024/03/18 07:54:06;;;;;;;;;;;7.10;99.90;;;;;;5031036;28;19913;-76
2024/03/18 07:56:32;;;;;;;;;;;7.10;99.90;;;;;;5068405;28;20292;-77
2024/03/18 07:58:58;;;;;;;;;;;7.20;99.90;;;;;;5028063;28;19952;-76
2024/03/18 08:01:25;;;;;;;;;;;7.20;99.90;;;;;;5038665;28;20016;-77
2024/03/18 08:03:53;;;;;;;;;;;7.20;99.90;;;;;;5038388;28;19917;-77
2024/03/18 08:06:19;;;;;;;;;;;7.30;99.90;;;;;;5054016;28;19968;-77
2024/03/18 08:08:46;;;;;;;;;;;7.30;99.90;;;;;;5050968;28;19945;-77
2024/03/18 08:11:12;;;;;;;;;;;7.30;99.90;;;;;;5017762;28;19913;-74
2024/03/18 08:13:38;;;;;;;;;;;7.20;99.90;;;;;;5046844;28;19923;-77
2024/03/18 08:16:04;;;;;;;;;;;7.20;99.90;;;;;;5054176;28;20013;-77
2024/03/18 08:18:31;;;;;;;;;;;7.30;99.90;;;;;;5062540;28;19925;-77
2024/03/18 08:20:56;;;;;;;;;;;7.30;99.90;;;;;;5036847;28;20017;-76
2024/03/18 08:23:22;;;;;;;;;;;7.40;99.90;;;;;;5061147;28;19944;-77
2024/03/18 08:25:48;;;;;;;;;;;7.40;99.90;;;;;;5018821;28;19918;-77
2024/03/18 08:28:14;;;;;;;;;;;7.40;99.90;;;;;;5071776;28;20025;-76
2024/03/18 08:30:39;;;;;;;;;;;7.40;99.90;;;;;;5035754;28;19916;-77
2024/03/18 08:33:05;;;;;;;;;;;7.50;99.90;;;;;;5018384;28;19921;-77
2024/03/18 08:35:32;;;;;;;;;;;7.50;99.90;;;;;;5014880;28;19917;-77
2024/03/18 08:37:58;;;;;;;;;;;7.50;99.90;;;;;;5034666;28;20008;-77
2024/03/18 08:40:24;;;;;;;;;;;7.60;99.90;;;;;;5052512;28;19948;-75
2024/03/18 08:42:51;;;;;;;;;;;7.70;99.90;;;;;;5019890;28;19950;-77
2024/03/18 08:45:16;;;;;;;;;;;7.90;99.90;;;;;;5033237;28;19923;-78
2024/03/18 08:47:43;;;;;;;;;;;8.00;99.90;;;;;;5061793;28;19913;-75
2024/03/18 08:50:09;;;;;;;;;;;8.20;99.90;;;;;;5015780;28;20040;-77
2024/03/18 08:52:37;;;;;;;;;;;8.40;99.90;;;;;;5053884;28;19913;-78
2024/03/18 08:55:05;;;;;;;;;;;8.40;99.90;;;;;;5021121;28;19917;-77
2024/03/18 08:57:32;;;;;;;;;;;8.50;99.90;;;;;;5040418;28;19946;-76
2024/03/18 08:59:58;;;;;;;;;;;8.50;99.90;;;;;;5063174;28;19928;-77
2024/03/18 09:02:23;;;;;;;;;;;8.60;99.90;;;;;;5079867;28;20249;-76
2024/03/18 09:04:49;;;;;;;;;;;8.70;99.90;;;;;;5052551;28;20241;-77
2024/03/18 09:07:15;;;;;;;;;;;8.60;99.90;;;;;;5062019;28;19953;-77
2024/03/18 09:09:41;;;;;;;;;;;8.60;99.90;;;;;;5027077;28;19970;-77
2024/03/18 09:12:08;;;;;;;;;;;8.50;99.90;;;;;;5037826;28;19939;-76
2024/03/18 09:14:33;;;;;;;;;;;8.50;99.90;;;;;;5006338;28;19924;-77
2024/03/18 09:17:02;;;;;;;;;;;8.60;99.90;;;;;;5027134;28;20258;-75
2024/03/18 09:19:31;;;;;;;;;;;8.70;99.90;;;;;;5073898;28;19917;-75
2024/03/18 09:21:57;;;;;;;;;;;8.90;99.90;;;;;;5043345;28;20016;-75
2024/03/18 09:24:23;;;;;;;;;;;8.90;99.90;;;;;;5049090;28;19949;-77
2024/03/18 09:26:49;;;;;;;;;;;8.90;99.80;;;;;;5038843;28;19924;-77
2024/03/18 09:29:14;;;;;;;;;;;8.90;99.90;;;;;;5024186;28;20000;-75
2024/03/18 09:31:42;;;;;;;;;;;8.90;99.90;;;;;;5043859;28;20011;-77
2024/03/18 09:34:09;;;;;;;;;;;8.90;99.60;;;;;;5003506;28;19917;-77
2024/03/18 09:36:35;;;;;;;;;;;8.90;99.90;;;;;;5032736;28;19917;-77
2024/03/18 09:39:01;;;;;;;;;;;8.90;99.90;;;;;;5035148;28;20040;-76
2024/03/18 09:41:26;;;;;;;;;;;9.00;99.90;;;;;;5034612;28;19979;-77
2024/03/18 09:43:52;;;;;;;;;;;9.00;99.90;;;;;;5017371;28;20322;-77
2024/03/18 09:46:17;;;;;;;;;;;9.00;99.90;;;;;;5054448;28;19913;-77
2024/03/18 09:48:43;;;;;;;;;;;8.90;99.90;;;;;;5032650;28;19956;-77
2024/03/18 09:51:15;;;;;;;;;;;8.90;99.90;;;;;;5033583;28;19968;-77
2024/03/18 09:53:47;;;;;;;;;;;8.90;99.90;;;;;;5017352;28;19928;-77
2024/03/18 09:56:15;;;;;;;;;;;8.90;99.90;;;;;;5033770;28;19974;-77
2024/03/18 09:58:43;;;;;;;;;;;8.80;99.90;;;;;;5053380;28;19970;-77
2024/03/18 10:01:10;;;;;;;;;;;9.00;99.90;;;;;;5050589;28;19932;-77
2024/03/18 10:03:38;;;;;;;;;;;9.10;99.90;;;;;;5006904;28;19975;-77
2024/03/18 10:06:04;;;;;;;;;;;9.10;99.90;;;;;;5045708;28;19960;-77
2024/03/18 10:08:31;;;;;;;;;;;9.20;99.90;;;;;;5032287;28;19956;-77
2024/03/18 10:10:57;;;;;;;;;;;9.20;99.90;;;;;;5031605;28;19917;-77
2024/03/18 10:13:24;;;;;;;;;;;9.30;99.90;;;;;;5035007;28;19924;-77
2024/03/18 10:15:50;;;;;;;;;;;9.30;99.90;;;;;;5003849;28;19925;-77
2024/03/18 10:18:16;;;;;;;;;;;9.40;99.90;;;;;;5068597;28;19913;-77
2024/03/18 10:20:41;;;;;;;;;;;9.40;99.90;;;;;;5070347;28;20284;-77
2024/03/18 10:23:13;;;;;;;;;;;9.40;99.90;;;;;;5039781;28;19960;-78
2024/03/18 10:25:39;;;;;;;;;;;9.40;99.90;;;;;;5040679;28;20007;-76
2024/03/18 10:28:06;;;;;;;;;;;9.40;99.90;;;;;;5024052;28;20001;-77
2024/03/18 10:30:32;;;;;;;;;;;9.40;99.90;;;;;;5070092;28;19956;-77
2024/03/18 10:33:01;;;;;;;;;;;9.40;99.90;;;;;;5072309;28;19964;-76
2024/03/18 10:35:32;;;;;;;;;;;9.50;99.90;;;;;;5028032;28;19916;-76
2024/03/18 10:38:04;;;;;;;;;;;9.40;99.90;;;;;;5056148;28;20742;-77
2024/03/18 10:40:34;;;;;;;;;;;9.40;99.90;;;;;;5035516;28;20019;-77
2024/03/18 10:43:04;;;;;;;;;;;9.40;99.90;;;;;;5070496;28;19983;-76
2024/03/18 10:45:32;;;;;;;;;;;9.40;99.90;;;;;;5076165;28;19916;-76
2024/03/18 10:48:01;;;;;;;;;;;9.40;99.90;;;;;;5038403;28;19917;-77
2024/03/18 10:50:27;;;;;;;;;;;9.50;99.90;;;;;;5022466;28;19913;-77
2024/03/18 10:52:53;;;;;;;;;;;9.50;99.90;;;;;;5038599;28;19924;-77
2024/03/18 10:55:19;;;;;;;;;;;9.60;99.90;;;;;;5022636;28;19917;-77
2024/03/18 10:57:54;;;;;;;;;;;9.60;99.90;;;;;;5038820;28;19917;-77
2024/03/18 11:00:20;;;;;;;;;;;9.60;99.90;;;;;;5038471;28;19922;-77
2024/03/18 11:02:54;;;;;;;;;;;9.80;99.90;;;;;;5021396;28;20269;-77
2024/03/18 11:05:23;;;;;;;;;;;9.90;99.90;;;;;;5055287;28;19979;-76
2024/03/18 11:07:49;;;;;;;;;;;10.10;99.90;;;;;;5040132;28;19924;-77
2024/03/18 11:10:14;;;;;;;;;;;10.20;99.90;;;;;;5055317;28;19917;-77
2024/03/18 11:12:42;;;;;;;;;;;10.40;99.90;;;;;;5072880;28;19914;-76
2024/03/18 11:15:08;;;;;;;;;;;10.50;99.90;;;;;;5040455;28;19943;-77
2024/03/18 11:17:47;;;;;;;;;;;10.80;99.90;;;;;;5021977;28;19964;-78
2024/03/18 11:20:14;;;;;;;;;;;10.90;99.90;;;;;;5017597;28;19918;-77
2024/03/18 11:22:46;;;;;;;;;;;11.00;99.90;;;;;;5083391;28;20364;-77
2024/03/18 11:25:15;;;;;;;;;;;11.10;99.90;;;;;;5041423;28;19920;-77
2024/03/18 11:27:48;;;;;;;;;;;11.30;99.90;;;;;;5035119;28;20327;-77
2024/03/18 11:30:27;;;;;;;;;;;11.30;99.30;;;;;;5047721;28;19920;-77
2024/03/18 11:32:52;;;;;;;;;;;11.40;99.70;;;;;;5054462;28;19921;-76
2024/03/18 11:35:18;;;;;;;;;;;11.60;99.70;;;;;;5061850;28;19978;-77
2024/03/18 11:37:47;;;;;;;;;;;11.70;99.80;;;;;;5071471;28;20206;-76
2024/03/18 11:40:17;;;;;;;;;;;11.60;99.00;;;;;;5021562;28;19917;-77
2024/03/18 11:42:44;;;;;;;;;;;11.70;99.10;;;;;;5037056;28;19921;-75
2024/03/18 11:45:16;;;;;;;;;;;11.60;98.60;;;;;;5038884;28;19917;-76
2024/03/18 11:47:42;;;;;;;;;;;11.60;98.50;;;;;;5041861;28;19971;-75
2024/03/18 11:50:07;;;;;;;;;;;11.50;99.10;;;;;;5055853;28;19917;-77
2024/03/18 11:52:33;;;;;;;;;;;11.60;99.10;;;;;;5052091;28;19999;-77
2024/03/18 11:54:59;;;;;;;;;;;11.60;99.30;;;;;;5037312;28;19948;-77
2024/03/18 11:57:27;;;;;;;;;;;11.70;99.80;;;;;;5009983;28;19913;-77
2024/03/18 11:59:53;;;;;;;;;;;11.70;99.20;;;;;;5039900;28;20055;-78
2024/03/18 12:02:19;;;;;;;;;;;11.70;98.70;;;;;;5041501;28;20011;-76
2024/03/18 12:04:45;;;;;;;;;;;11.70;98.80;;;;;;5056868;28;19925;-78
2024/03/18 12:07:11;;;;;;;;;;;11.70;98.70;;;;;;5041126;28;19947;-78
2024/03/18 12:09:36;;;;;;;;;;;11.70;98.80;;;;;;5026486;28;19913;-76
2024/03/18 12:12:03;;;;;;;;;;;11.60;97.80;;;;;;5041063;28;19979;-77
2024/03/18 12:14:29;;;;;;;;;;;11.60;98.30;;;;;;5045233;28;19916;-77
2024/03/18 12:16:54;;;;;;;;;;;11.70;98.10;;;;;;5061821;28;20368;-77
2024/03/18 12:19:20;;;;;;;;;;;11.60;97.50;;;;;;5077980;28;19921;-78
2024/03/18 12:21:47;;;;;;;;;;;11.60;97.50;;;;;;5073231;28;19917;-78
2024/03/18 12:29:41;;;;;;;;;;;11.80;97.50;;;;;;5028838;28;19925;-75
2024/03/18 12:32:10;;;;;;;;;;;11.80;96.80;;;;;;5033130;28;19921;-76
2024/03/18 12:34:36;;;;;;;;;;;12.00;97.40;;;;;;5015636;28;19975;-74
2024/03/18 12:37:02;;;;;;;;;;;12.00;96.30;;;;;;5040073;28;19999;-75
2024/03/18 12:39:28;;;;;;;;;;;12.10;95.80;;;;;;5057608;28;19928;-74
2024/03/18 12:41:59;;;;;;;;;;;12.20;95.80;;;;;;5064653;28;19978;-74
2024/03/18 12:44:25;;;;;;;;;;;12.30;96.00;;;;;;5040927;28;19917;-75
2024/03/18 12:46:51;;;;;;;;;;;12.60;96.40;;;;;;5036353;28;19919;-75
2024/03/18 12:49:16;;;;;;;;;;;12.90;95.90;;;;;;5035896;28;19917;-75
2024/03/18 12:51:42;;;;;;;;;;;13.00;94.80;;;;;;5016942;28;19923;-75
2024/03/18 12:54:09;;;;;;;;;;;13.00;94.90;;;;;;5058244;28;19917;-75
2024/03/18 12:56:35;;;;;;;;;;;12.90;94.50;;;;;;5033990;28;20674;-75
2024/03/18 12:59:01;;;;;;;;;;;13.00;94.10;;;;;;5032059;28;19925;-75
2024/03/18 13:01:28;;;;;;;;;;;13.00;94.70;;;;;;5057214;28;19982;-75
2024/03/18 13:03:54;;;;;;;;;;;13.10;94.60;;;;;;5049110;28;20285;-75
2024/03/18 13:06:20;;;;;;;;;;;13.20;94.50;;;;;;5049451;28;19916;-74
2024/03/18 13:08:46;;;;;;;;;;;13.30;94.20;;;;;;5046976;28;19913;-75
2024/03/18 13:11:17;;;;;;;;;;;13.20;94.00;;;;;;5024402;28;19956;-75
2024/03/18 13:13:43;;;;;;;;;;;13.20;94.10;;;;;;5055116;28;19921;-75
2024/03/18 13:16:10;;;;;;;;;;;13.10;94.10;;;;;;5060966;28;20337;-75
2024/03/18 13:18:35;;;;;;;;;;;12.80;94.10;;;;;;5030934;28;19927;-75
2024/03/18 13:21:01;;;;;;;;;;;12.70;94.90;;;;;;5053985;28;19921;-75
2024/03/18 13:23:32;;;;;;;;;;;12.70;94.80;;;;;;5051185;28;19913;-75
2024/03/18 13:25:59;;;;;;;;;;;12.70;95.10;;;;;;5032239;28;19956;-76
2024/03/18 13:28:25;;;;;;;;;;;12.70;94.60;;;;;;5018321;28;19913;-75
2024/03/18 13:30:51;;;;;;;;;;;12.70;94.40;;;;;;5035068;28;20023;-75
2024/03/18 13:33:17;;;;;;;;;;;12.60;94.80;;;;;;5085429;28;20011;-75
2024/03/18 13:35:43;;;;;;;;;;;12.60;95.20;;;;;;5017021;28;19917;-75
2024/03/18 13:38:10;;;;;;;;;;;12.50;94.80;;;;;;5033669;28;19917;-75
2024/03/18 13:40:36;;;;;;;;;;;12.50;94.70;;;;;;5009773;28;20327;-76
2024/03/18 13:43:02;;;;;;;;;;;12.40;95.00;;;;;;5013262;28;19979;-76
2024/03/18 13:45:28;;;;;;;;;;;12.40;95.10;;;;;;5048368;28;19921;-76
2024/03/18 13:47:54;;;;;;;;;;;12.40;95.50;;;;;;5049552;28;20269;-75
2024/03/18 13:50:26;;;;;;;;;;;12.40;95.20;;;;;;5044543;28;20456;-76
2024/03/18 13:52:52;;;;;;;;;;;12.50;95.40;;;;;;5031234;28;20253;-75
2024/03/18 13:55:19;;;;;;;;;;;12.30;94.90;;;;;;5052806;28;20330;-76
2024/03/18 13:57:47;;;;;;;;;;;12.30;95.40;;;;;;5020097;28;19917;-76
2024/03/18 14:00:19;;;;;;;;;;;12.30;95.10;;;;;;5032829;28;19940;-75
2024/03/18 14:02:48;;;;;;;;;;;12.30;95.20;;;;;;5049147;28;19943;-75
2024/03/18 14:05:14;;;;;;;;;;;12.30;95.30;;;;;;5062565;28;19923;-76
2024/03/18 14:07:40;;;;;;;;;;;12.30;94.50;;;;;;5052107;28;20398;-75
2024/03/18 14:10:06;;;;;;;;;;;12.20;94.70;;;;;;5031849;28;19932;-75
2024/03/18 14:12:31;;;;;;;;;;;12.10;95.30;;;;;;5016758;28;20253;-75
2024/03/18 14:15:00;;;;;;;;;;;12.00;95.10;;;;;;5038985;28;19917;-78
2024/03/18 14:17:26;;;;;;;;;;;12.00;95.60;;;;;;5040512;28;19913;-78
2024/03/18 14:19:52;;;;;;;;;;;12.00;95.80;;;;;;5038874;28;19975;-77
2024/03/18 14:22:18;;;;;;;;;;;12.10;95.60;;;;;;5055855;28;19917;-78
2024/03/18 14:24:47;;;;;;;;;;;12.10;95.90;;;;;;5040515;28;20257;-78
2024/03/18 14:27:13;;;;;;;;;;;12.10;95.70;;;;;;5032534;28;19923;-78